sensor_id;sensor_type;location;lat;lon;timestamp;P1;durP1;ratioP1;P2;durP2;ratioP2
41661;SDS011;27351;45.992;12.666;2022-12-01T00:03:57;19.23;;;10.18;;
41661;SDS011;27351;45.992;12.666;2022-12-01T00:06:22;17.70;;;8.93;;
41661;SDS011;27351;45.992;12.666;2022-12-01T00:08:48;19.45;;;10.57;;
41661;SDS011;27351;45.992;12.666;2022-12-01T00:11:34;17.10;;;9.68;;
41661;SDS011;27351;45.992;12.666;2022-12-01T00:14:00;18.13;;;10.48;;
41661;SDS011;27351;45.992;12.666;2022-12-01T00:16:25;15.45;;;9.07;;
41661;SDS011;27351;45.992;12.666;2022-12-01T00:21:20;15.33;;;8.80;;
41661;SDS011;27351;45.992;12.666;2022-12-01T00:26:12;15.77;;;7.47;;
41661;SDS011;27351;45.992;12.666;2022-12-01T00:28:38;13.75;;;7.25;;
41661;SDS011;27351;45.992;12.666;2022-12-01T00:43:10;11.73;;;6.60;;
41661;SDS011;27351;45.992;12.666;2022-12-01T00:45:35;11.15;;;5.97;;
41661;SDS011;27351;45.992;12.666;2022-12-01T00:48:01;13.75;;;6.85;;
41661;SDS011;27351;45.992;12.666;2022-12-01T00:50:27;12.00;;;5.88;;
41661;SDS011;27351;45.992;12.666;2022-12-01T00:52:54;12.03;;;6.13;;
41661;SDS011;27351;45.992;12.666;2022-12-01T00:55:20;11.32;;;5.95;;
41661;SDS011;27351;45.992;12.666;2022-12-01T00:57:47;11.73;;;5.78;;
41661;SDS011;27351;45.992;12.666;2022-12-01T01:00:14;11.07;;;6.55;;
41661;SDS011;27351;45.992;12.666;2022-12-01T01:02:40;12.50;;;6.43;;
41661;SDS011;27351;45.992;12.666;2022-12-01T01:05:07;10.82;;;5.25;;
41661;SDS011;27351;45.992;12.666;2022-12-01T01:07:32;10.43;;;5.60;;
41661;SDS011;27351;45.992;12.666;2022-12-01T01:09:58;12.03;;;6.07;;
41661;SDS011;27351;45.992;12.666;2022-12-01T01:12:24;10.32;;;5.75;;
41661;SDS011;27351;45.992;12.666;2022-12-01T01:14:50;10.15;;;5.55;;
41661;SDS011;27351;45.992;12.666;2022-12-01T01:17:16;9.83;;;4.97;;
41661;SDS011;27351;45.992;12.666;2022-12-01T01:19:42;11.07;;;5.90;;
41661;SDS011;27351;45.992;12.666;2022-12-01T01:22:07;11.10;;;5.17;;
41661;SDS011;27351;45.992;12.666;2022-12-01T01:27:27;8.25;;;4.55;;
41661;SDS011;27351;45.992;12.666;2022-12-01T01:29:53;9.55;;;5.28;;
41661;SDS011;27351;45.992;12.666;2022-12-01T01:32:19;9.27;;;4.60;;
41661;SDS011;27351;45.992;12.666;2022-12-01T01:34:44;7.97;;;3.75;;
41661;SDS011;27351;45.992;12.666;2022-12-01T01:37:10;8.00;;;4.30;;
41661;SDS011;27351;45.992;12.666;2022-12-01T01:39:35;7.97;;;3.83;;
41661;SDS011;27351;45.992;12.666;2022-12-01T01:42:01;7.55;;;4.40;;
41661;SDS011;27351;45.992;12.666;2022-12-01T01:47:31;9.25;;;4.28;;
41661;SDS011;27351;45.992;12.666;2022-12-01T01:50:00;7.20;;;3.80;;
41661;SDS011;27351;45.992;12.666;2022-12-01T01:52:30;8.15;;;3.90;;
41661;SDS011;27351;45.992;12.666;2022-12-01T01:54:56;8.25;;;3.97;;
41661;SDS011;27351;45.992;12.666;2022-12-01T01:57:24;8.40;;;3.97;;
41661;SDS011;27351;45.992;12.666;2022-12-01T01:59:52;8.80;;;4.37;;
41661;SDS011;27351;45.992;12.666;2022-12-01T02:02:19;9.95;;;4.22;;
41661;SDS011;27351;45.992;12.666;2022-12-01T02:04:45;8.23;;;3.80;;
41661;SDS011;27351;45.992;12.666;2022-12-01T02:07:12;9.85;;;4.47;;
41661;SDS011;27351;45.992;12.666;2022-12-01T02:09:40;8.00;;;4.13;;
41661;SDS011;27351;45.992;12.666;2022-12-01T02:17:54;7.88;;;3.90;;
41661;SDS011;27351;45.992;12.666;2022-12-01T02:25:59;7.50;;;3.72;;
41661;SDS011;27351;45.992;12.666;2022-12-01T02:28:39;8.35;;;3.97;;
41661;SDS011;27351;45.992;12.666;2022-12-01T02:31:16;8.65;;;3.83;;
41661;SDS011;27351;45.992;12.666;2022-12-01T02:33:48;7.38;;;3.70;;
41661;SDS011;27351;45.992;12.666;2022-12-01T02:36:27;7.90;;;3.67;;
41661;SDS011;27351;45.992;12.666;2022-12-01T04:48:02;5.47;;;3.10;;
41661;SDS011;27351;45.992;12.666;2022-12-01T04:50:27;5.95;;;3.25;;
41661;SDS011;27351;45.992;12.666;2022-12-01T04:52:54;5.65;;;3.25;;
41661;SDS011;27351;45.992;12.666;2022-12-01T04:55:19;6.00;;;3.33;;
41661;SDS011;27351;45.992;12.666;2022-12-01T04:57:47;7.70;;;3.55;;
41661;SDS011;27351;45.992;12.666;2022-12-01T05:00:13;6.00;;;3.03;;
41661;SDS011;27351;45.992;12.666;2022-12-01T05:02:38;5.82;;;3.00;;
41661;SDS011;27351;45.992;12.666;2022-12-01T05:05:08;5.28;;;2.55;;
41661;SDS011;27351;45.992;12.666;2022-12-01T05:07:33;5.15;;;2.58;;
41661;SDS011;27351;45.992;12.666;2022-12-01T05:09:59;5.95;;;2.65;;
41661;SDS011;27351;45.992;12.666;2022-12-01T05:12:24;4.25;;;2.22;;
41661;SDS011;27351;45.992;12.666;2022-12-01T05:14:50;5.68;;;2.92;;
41661;SDS011;27351;45.992;12.666;2022-12-01T05:17:16;6.20;;;2.70;;
41661;SDS011;27351;45.992;12.666;2022-12-01T05:19:41;4.63;;;2.35;;
41661;SDS011;27351;45.992;12.666;2022-12-01T05:22:26;6.93;;;2.95;;
41661;SDS011;27351;45.992;12.666;2022-12-01T05:24:51;5.37;;;2.47;;
41661;SDS011;27351;45.992;12.666;2022-12-01T05:27:17;6.90;;;3.00;;
41661;SDS011;27351;45.992;12.666;2022-12-01T05:29:42;6.30;;;3.10;;
41661;SDS011;27351;45.992;12.666;2022-12-01T05:32:08;7.38;;;3.40;;
41661;SDS011;27351;45.992;12.666;2022-12-01T05:34:33;7.37;;;3.63;;
41661;SDS011;27351;45.992;12.666;2022-12-01T05:36:59;7.33;;;3.23;;
41661;SDS011;27351;45.992;12.666;2022-12-01T05:39:24;5.50;;;2.57;;
41661;SDS011;27351;45.992;12.666;2022-12-01T05:41:50;6.10;;;2.83;;
41661;SDS011;27351;45.992;12.666;2022-12-01T05:44:15;4.73;;;2.27;;
41661;SDS011;27351;45.992;12.666;2022-12-01T05:46:41;5.50;;;2.70;;
41661;SDS011;27351;45.992;12.666;2022-12-01T05:49:06;6.80;;;2.80;;
41661;SDS011;27351;45.992;12.666;2022-12-01T05:51:32;9.23;;;2.80;;
41661;SDS011;27351;45.992;12.666;2022-12-01T05:53:58;15.10;;;12.32;;
41661;SDS011;27351;45.992;12.666;2022-12-01T05:56:24;10.80;;;7.35;;
41661;SDS011;27351;45.992;12.666;2022-12-01T05:58:50;9.93;;;7.40;;
41661;SDS011;27351;45.992;12.666;2022-12-01T06:01:15;7.55;;;4.93;;
41661;SDS011;27351;45.992;12.666;2022-12-01T06:03:41;7.72;;;4.22;;
41661;SDS011;27351;45.992;12.666;2022-12-01T06:06:06;6.78;;;3.25;;
41661;SDS011;27351;45.992;12.666;2022-12-01T06:08:32;7.35;;;3.67;;
41661;SDS011;27351;45.992;12.666;2022-12-01T06:10:57;7.70;;;3.60;;
41661;SDS011;27351;45.992;12.666;2022-12-01T06:13:23;6.90;;;4.10;;
41661;SDS011;27351;45.992;12.666;2022-12-01T06:15:55;7.43;;;3.43;;
41661;SDS011;27351;45.992;12.666;2022-12-01T06:18:22;8.82;;;3.10;;
41661;SDS011;27351;45.992;12.666;2022-12-01T06:20:47;6.03;;;2.80;;
41661;SDS011;27351;45.992;12.666;2022-12-01T06:23:13;6.37;;;3.07;;
41661;SDS011;27351;45.992;12.666;2022-12-01T06:25:39;8.70;;;3.80;;
41661;SDS011;27351;45.992;12.666;2022-12-01T06:28:04;9.60;;;4.47;;
41661;SDS011;27351;45.992;12.666;2022-12-01T06:30:30;7.63;;;3.83;;
41661;SDS011;27351;45.992;12.666;2022-12-01T06:32:55;10.87;;;4.37;;
41661;SDS011;27351;45.992;12.666;2022-12-01T06:35:21;9.63;;;5.10;;
41661;SDS011;27351;45.992;12.666;2022-12-01T06:37:46;9.53;;;4.57;;
41661;SDS011;27351;45.992;12.666;2022-12-01T06:40:12;11.93;;;4.20;;
41661;SDS011;27351;45.992;12.666;2022-12-01T06:42:37;9.37;;;4.37;;
41661;SDS011;27351;45.992;12.666;2022-12-01T06:45:03;11.10;;;4.93;;
41661;SDS011;27351;45.992;12.666;2022-12-01T06:47:29;13.53;;;5.93;;
41661;SDS011;27351;45.992;12.666;2022-12-01T06:49:54;9.30;;;4.60;;
41661;SDS011;27351;45.992;12.666;2022-12-01T06:52:19;11.43;;;5.50;;
41661;SDS011;27351;45.992;12.666;2022-12-01T06:54:45;14.32;;;6.07;;
41661;SDS011;27351;45.992;12.666;2022-12-01T06:57:10;13.00;;;6.03;;
41661;SDS011;27351;45.992;12.666;2022-12-01T06:59:36;17.70;;;8.00;;
41661;SDS011;27351;45.992;12.666;2022-12-01T07:02:01;13.10;;;5.70;;
41661;SDS011;27351;45.992;12.666;2022-12-01T07:04:27;11.63;;;5.50;;
41661;SDS011;27351;45.992;12.666;2022-12-01T07:06:53;15.32;;;6.00;;
41661;SDS011;27351;45.992;12.666;2022-12-01T07:09:19;11.18;;;5.28;;
41661;SDS011;27351;45.992;12.666;2022-12-01T07:11:44;11.02;;;4.53;;
41661;SDS011;27351;45.992;12.666;2022-12-01T07:14:15;10.23;;;5.05;;
41661;SDS011;27351;45.992;12.666;2022-12-01T07:16:41;9.60;;;3.90;;
41661;SDS011;27351;45.992;12.666;2022-12-01T07:19:07;9.02;;;3.67;;
41661;SDS011;27351;45.992;12.666;2022-12-01T07:21:32;8.00;;;3.50;;
41661;SDS011;27351;45.992;12.666;2022-12-01T07:23:58;7.40;;;3.30;;
41661;SDS011;27351;45.992;12.666;2022-12-01T07:26:23;7.07;;;3.20;;
41661;SDS011;27351;45.992;12.666;2022-12-01T07:28:49;7.70;;;3.57;;
41661;SDS011;27351;45.992;12.666;2022-12-01T07:31:15;6.47;;;2.83;;
41661;SDS011;27351;45.992;12.666;2022-12-01T07:33:41;7.25;;;3.20;;
41661;SDS011;27351;45.992;12.666;2022-12-01T07:36:07;5.70;;;3.08;;
41661;SDS011;27351;45.992;12.666;2022-12-01T07:38:34;7.67;;;2.90;;
41661;SDS011;27351;45.992;12.666;2022-12-01T07:41:04;5.90;;;3.30;;
41661;SDS011;27351;45.992;12.666;2022-12-01T07:43:30;6.50;;;3.03;;
41661;SDS011;27351;45.992;12.666;2022-12-01T07:46:01;11.00;;;3.13;;
41661;SDS011;27351;45.992;12.666;2022-12-01T07:48:28;8.57;;;3.80;;
41661;SDS011;27351;45.992;12.666;2022-12-01T07:50:54;8.60;;;3.78;;
41661;SDS011;27351;45.992;12.666;2022-12-01T07:53:20;10.25;;;3.92;;
41661;SDS011;27351;45.992;12.666;2022-12-01T07:55:48;9.83;;;3.83;;
41661;SDS011;27351;45.992;12.666;2022-12-01T07:58:17;6.93;;;3.17;;
41661;SDS011;27351;45.992;12.666;2022-12-01T08:00:42;7.07;;;3.07;;
41661;SDS011;27351;45.992;12.666;2022-12-01T08:03:08;7.57;;;3.27;;
41661;SDS011;27351;45.992;12.666;2022-12-01T08:05:33;10.07;;;3.87;;
41661;SDS011;27351;45.992;12.666;2022-12-01T08:08:00;8.77;;;3.70;;
41661;SDS011;27351;45.992;12.666;2022-12-01T08:10:25;10.98;;;3.38;;
41661;SDS011;27351;45.992;12.666;2022-12-01T08:12:51;6.28;;;3.30;;
41661;SDS011;27351;45.992;12.666;2022-12-01T08:15:16;6.57;;;3.45;;
41661;SDS011;27351;45.992;12.666;2022-12-01T08:17:42;6.15;;;2.90;;
41661;SDS011;27351;45.992;12.666;2022-12-01T08:20:08;6.95;;;3.30;;
41661;SDS011;27351;45.992;12.666;2022-12-01T08:22:33;6.65;;;3.00;;
41661;SDS011;27351;45.992;12.666;2022-12-01T08:24:59;8.07;;;3.15;;
41661;SDS011;27351;45.992;12.666;2022-12-01T08:27:24;5.20;;;2.50;;
41661;SDS011;27351;45.992;12.666;2022-12-01T08:29:50;4.77;;;2.33;;
41661;SDS011;27351;45.992;12.666;2022-12-01T08:32:16;4.73;;;2.30;;
41661;SDS011;27351;45.992;12.666;2022-12-01T08:34:41;5.07;;;2.27;;
41661;SDS011;27351;45.992;12.666;2022-12-01T08:37:07;5.80;;;2.40;;
41661;SDS011;27351;45.992;12.666;2022-12-01T08:39:32;5.20;;;2.10;;
41661;SDS011;27351;45.992;12.666;2022-12-01T08:41:58;4.37;;;2.10;;
41661;SDS011;27351;45.992;12.666;2022-12-01T08:44:23;4.30;;;2.10;;
41661;SDS011;27351;45.992;12.666;2022-12-01T08:46:49;5.20;;;2.20;;
41661;SDS011;27351;45.992;12.666;2022-12-01T08:49:14;5.50;;;2.60;;
41661;SDS011;27351;45.992;12.666;2022-12-01T08:51:40;5.20;;;2.10;;
41661;SDS011;27351;45.992;12.666;2022-12-01T08:54:06;3.97;;;1.90;;
41661;SDS011;27351;45.992;12.666;2022-12-01T08:56:36;4.82;;;1.77;;
41661;SDS011;27351;45.992;12.666;2022-12-01T08:59:02;4.50;;;2.10;;
41661;SDS011;27351;45.992;12.666;2022-12-01T09:01:28;5.55;;;2.13;;
41661;SDS011;27351;45.992;12.666;2022-12-01T09:03:57;3.80;;;2.00;;
41661;SDS011;27351;45.992;12.666;2022-12-01T09:06:33;3.20;;;1.40;;
41661;SDS011;27351;45.992;12.666;2022-12-01T09:09:01;4.28;;;1.60;;
41661;SDS011;27351;45.992;12.666;2022-12-01T09:11:27;2.77;;;1.33;;
41661;SDS011;27351;45.992;12.666;2022-12-01T09:13:52;3.27;;;1.33;;
41661;SDS011;27351;45.992;12.666;2022-12-01T09:16:18;3.00;;;1.40;;
41661;SDS011;27351;45.992;12.666;2022-12-01T09:18:44;4.73;;;1.90;;
41661;SDS011;27351;45.992;12.666;2022-12-01T09:21:14;3.85;;;1.65;;
41661;SDS011;27351;45.992;12.666;2022-12-01T09:23:40;3.97;;;1.83;;
41661;SDS011;27351;45.992;12.666;2022-12-01T09:26:06;4.60;;;1.70;;
41661;SDS011;27351;45.992;12.666;2022-12-01T09:28:32;3.78;;;1.73;;
41661;SDS011;27351;45.992;12.666;2022-12-01T09:31:02;2.53;;;1.33;;
41661;SDS011;27351;45.992;12.666;2022-12-01T09:33:27;4.70;;;1.98;;
41661;SDS011;27351;45.992;12.666;2022-12-01T09:35:56;3.47;;;1.60;;
41661;SDS011;27351;45.992;12.666;2022-12-01T09:38:22;2.83;;;1.20;;
41661;SDS011;27351;45.992;12.666;2022-12-01T09:40:47;4.28;;;2.10;;
41661;SDS011;27351;45.992;12.666;2022-12-01T09:43:17;4.35;;;2.30;;
41661;SDS011;27351;45.992;12.666;2022-12-01T09:45:50;4.10;;;1.90;;
41661;SDS011;27351;45.992;12.666;2022-12-01T09:48:22;4.07;;;1.63;;
41661;SDS011;27351;45.992;12.666;2022-12-01T09:50:48;3.45;;;1.90;;
41661;SDS011;27351;45.992;12.666;2022-12-01T09:53:16;4.55;;;1.90;;
41661;SDS011;27351;45.992;12.666;2022-12-01T09:55:43;5.03;;;2.50;;
41661;SDS011;27351;45.992;12.666;2022-12-01T09:58:12;4.33;;;2.27;;
41661;SDS011;27351;45.992;12.666;2022-12-01T10:00:41;5.40;;;2.00;;
41661;SDS011;27351;45.992;12.666;2022-12-01T10:05:38;3.00;;;1.70;;
41661;SDS011;27351;45.992;12.666;2022-12-01T10:08:07;6.30;;;1.92;;
41661;SDS011;27351;45.992;12.666;2022-12-01T10:10:39;2.95;;;1.55;;
41661;SDS011;27351;45.992;12.666;2022-12-01T10:13:28;3.38;;;1.65;;
41661;SDS011;27351;45.992;12.666;2022-12-01T10:23:50;3.70;;;1.50;;
41661;SDS011;27351;45.992;12.666;2022-12-01T10:26:24;3.17;;;1.65;;
41661;SDS011;27351;45.992;12.666;2022-12-01T10:33:58;5.27;;;1.90;;
41661;SDS011;27351;45.992;12.666;2022-12-01T10:36:23;5.38;;;2.08;;
41661;SDS011;27351;45.992;12.666;2022-12-01T10:38:49;6.88;;;2.08;;
41661;SDS011;27351;45.992;12.666;2022-12-01T10:41:15;3.95;;;1.77;;
41661;SDS011;27351;45.992;12.666;2022-12-01T10:43:53;3.15;;;1.75;;
41661;SDS011;27351;45.992;12.666;2022-12-01T10:48:57;3.85;;;1.70;;
41661;SDS011;27351;45.992;12.666;2022-12-01T10:51:23;3.50;;;1.40;;
41661;SDS011;27351;45.992;12.666;2022-12-01T10:53:49;3.73;;;1.63;;
41661;SDS011;27351;45.992;12.666;2022-12-01T10:56:21;3.45;;;1.92;;
41661;SDS011;27351;45.992;12.666;2022-12-01T10:58:48;4.15;;;1.90;;
41661;SDS011;27351;45.992;12.666;2022-12-01T11:01:25;4.38;;;1.90;;
41661;SDS011;27351;45.992;12.666;2022-12-01T11:03:55;3.38;;;1.80;;
41661;SDS011;27351;45.992;12.666;2022-12-01T11:06:22;3.25;;;1.70;;
41661;SDS011;27351;45.992;12.666;2022-12-01T11:08:52;2.97;;;1.50;;
41661;SDS011;27351;45.992;12.666;2022-12-01T11:11:36;5.05;;;2.00;;
41661;SDS011;27351;45.992;12.666;2022-12-01T11:14:15;4.88;;;2.00;;
41661;SDS011;27351;45.992;12.666;2022-12-01T11:16:43;3.55;;;1.73;;
41661;SDS011;27351;45.992;12.666;2022-12-01T11:21:51;3.65;;;1.50;;
41661;SDS011;27351;45.992;12.666;2022-12-01T11:26:57;3.80;;;1.55;;
41661;SDS011;27351;45.992;12.666;2022-12-01T11:29:30;2.17;;;1.38;;
41661;SDS011;27351;45.992;12.666;2022-12-01T11:31:57;4.22;;;1.50;;
41661;SDS011;27351;45.992;12.666;2022-12-01T11:34:24;2.70;;;1.30;;
41661;SDS011;27351;45.992;12.666;2022-12-01T11:36:58;1.75;;;1.00;;
41661;SDS011;27351;45.992;12.666;2022-12-01T11:41:54;1.83;;;0.90;;
41661;SDS011;27351;45.992;12.666;2022-12-01T11:44:20;1.70;;;1.00;;
41661;SDS011;27351;45.992;12.666;2022-12-01T11:46:46;1.80;;;0.70;;
41661;SDS011;27351;45.992;12.666;2022-12-01T11:49:20;4.05;;;1.85;;
41661;SDS011;27351;45.992;12.666;2022-12-01T11:51:47;2.38;;;1.27;;
41661;SDS011;27351;45.992;12.666;2022-12-01T11:56:38;1.63;;;0.82;;
41661;SDS011;27351;45.992;12.666;2022-12-01T12:04:36;0.88;;;0.60;;
41661;SDS011;27351;45.992;12.666;2022-12-01T12:07:17;1.25;;;0.75;;
41661;SDS011;27351;45.992;12.666;2022-12-01T12:09:55;1.50;;;0.70;;
41661;SDS011;27351;45.992;12.666;2022-12-01T12:12:40;2.47;;;1.23;;
41661;SDS011;27351;45.992;12.666;2022-12-01T12:23:09;3.25;;;1.05;;
41661;SDS011;27351;45.992;12.666;2022-12-01T12:25:47;1.98;;;1.20;;
41661;SDS011;27351;45.992;12.666;2022-12-01T12:33:40;1.35;;;0.88;;
41661;SDS011;27351;45.992;12.666;2022-12-01T12:36:34;1.30;;;0.73;;
41661;SDS011;27351;45.992;12.666;2022-12-01T12:39:27;2.10;;;0.90;;
41661;SDS011;27351;45.992;12.666;2022-12-01T12:41:54;1.50;;;0.77;;
41661;SDS011;27351;45.992;12.666;2022-12-01T12:44:34;2.05;;;1.00;;
41661;SDS011;27351;45.992;12.666;2022-12-01T12:50:05;1.60;;;0.70;;
41661;SDS011;27351;45.992;12.666;2022-12-01T12:52:34;0.90;;;0.57;;
41661;SDS011;27351;45.992;12.666;2022-12-01T12:57:34;0.90;;;0.50;;
41661;SDS011;27351;45.992;12.666;2022-12-01T13:00:03;0.85;;;0.50;;
41661;SDS011;27351;45.992;12.666;2022-12-01T13:05:28;1.20;;;0.60;;
41661;SDS011;27351;45.992;12.666;2022-12-01T13:07:59;0.82;;;0.30;;
41661;SDS011;27351;45.992;12.666;2022-12-01T13:10:35;1.20;;;0.57;;
41661;SDS011;27351;45.992;12.666;2022-12-01T13:13:05;0.40;;;0.40;;
41661;SDS011;27351;45.992;12.666;2022-12-01T13:15:36;1.45;;;0.50;;
41661;SDS011;27351;45.992;12.666;2022-12-01T13:18:07;0.50;;;0.40;;
41661;SDS011;27351;45.992;12.666;2022-12-01T13:20:37;0.60;;;0.40;;
41661;SDS011;27351;45.992;12.666;2022-12-01T13:23:03;1.83;;;0.50;;
41661;SDS011;27351;45.992;12.666;2022-12-01T13:25:36;0.82;;;0.40;;
41661;SDS011;27351;45.992;12.666;2022-12-01T13:28:04;1.40;;;0.70;;
41661;SDS011;27351;45.992;12.666;2022-12-01T13:30:35;1.00;;;0.40;;
41661;SDS011;27351;45.992;12.666;2022-12-01T13:33:02;0.90;;;0.52;;
41661;SDS011;27351;45.992;12.666;2022-12-01T13:35:36;1.43;;;0.70;;
41661;SDS011;27351;45.992;12.666;2022-12-01T13:38:17;1.17;;;0.60;;
41661;SDS011;27351;45.992;12.666;2022-12-01T13:40:44;1.33;;;0.60;;
41661;SDS011;27351;45.992;12.666;2022-12-01T13:43:17;1.23;;;0.70;;
41661;SDS011;27351;45.992;12.666;2022-12-01T13:45:44;2.35;;;0.60;;
41661;SDS011;27351;45.992;12.666;2022-12-01T13:48:42;1.55;;;0.55;;
41661;SDS011;27351;45.992;12.666;2022-12-01T13:51:13;0.50;;;0.30;;
41661;SDS011;27351;45.992;12.666;2022-12-01T13:53:51;0.87;;;0.43;;
41661;SDS011;27351;45.992;12.666;2022-12-01T13:56:23;1.10;;;0.70;;
41661;SDS011;27351;45.992;12.666;2022-12-01T13:58:50;0.50;;;0.40;;
41661;SDS011;27351;45.992;12.666;2022-12-01T14:03:42;1.40;;;0.60;;
41661;SDS011;27351;45.992;12.666;2022-12-01T14:09:01;0.83;;;0.40;;
41661;SDS011;27351;45.992;12.666;2022-12-01T14:11:29;3.25;;;0.57;;
41661;SDS011;27351;45.992;12.666;2022-12-01T14:16:20;0.55;;;0.40;;
41661;SDS011;27351;45.992;12.666;2022-12-01T14:18:54;0.90;;;0.60;;
41661;SDS011;27351;45.992;12.666;2022-12-01T14:21:39;1.00;;;0.50;;
41661;SDS011;27351;45.992;12.666;2022-12-01T14:24:05;1.80;;;0.52;;
41661;SDS011;27351;45.992;12.666;2022-12-01T14:26:31;2.08;;;0.55;;
41661;SDS011;27351;45.992;12.666;2022-12-01T14:29:07;0.75;;;0.50;;
41661;SDS011;27351;45.992;12.666;2022-12-01T14:34:13;2.13;;;1.00;;
41661;SDS011;27351;45.992;12.666;2022-12-01T14:39:13;1.65;;;0.77;;
41661;SDS011;27351;45.992;12.666;2022-12-01T14:41:42;1.30;;;0.70;;
41661;SDS011;27351;45.992;12.666;2022-12-01T14:49:04;3.20;;;0.90;;
41661;SDS011;27351;45.992;12.666;2022-12-01T14:51:30;3.70;;;0.80;;
41661;SDS011;27351;45.992;12.666;2022-12-01T14:53:57;2.45;;;0.85;;
41661;SDS011;27351;45.992;12.666;2022-12-01T14:56:24;1.48;;;0.60;;
41661;SDS011;27351;45.992;12.666;2022-12-01T14:58:52;2.00;;;0.90;;
41661;SDS011;27351;45.992;12.666;2022-12-01T15:01:18;2.40;;;0.80;;
41661;SDS011;27351;45.992;12.666;2022-12-01T15:03:49;2.20;;;0.90;;
41661;SDS011;27351;45.992;12.666;2022-12-01T15:06:16;4.30;;;1.20;;
41661;SDS011;27351;45.992;12.666;2022-12-01T15:08:43;1.42;;;0.70;;
41661;SDS011;27351;45.992;12.666;2022-12-01T15:11:18;1.30;;;0.70;;
41661;SDS011;27351;45.992;12.666;2022-12-01T15:13:47;1.90;;;0.75;;
41661;SDS011;27351;45.992;12.666;2022-12-01T15:16:14;2.07;;;0.70;;
41661;SDS011;27351;45.992;12.666;2022-12-01T15:18:40;1.40;;;0.75;;
41661;SDS011;27351;45.992;12.666;2022-12-01T15:23:31;1.58;;;0.70;;
41661;SDS011;27351;45.992;12.666;2022-12-01T15:25:57;1.48;;;0.80;;
41661;SDS011;27351;45.992;12.666;2022-12-01T15:28:32;2.03;;;1.15;;
41661;SDS011;27351;45.992;12.666;2022-12-01T15:30:59;1.95;;;0.90;;
41661;SDS011;27351;45.992;12.666;2022-12-01T15:35:51;1.67;;;0.83;;
41661;SDS011;27351;45.992;12.666;2022-12-01T15:38:18;2.80;;;1.30;;
41661;SDS011;27351;45.992;12.666;2022-12-01T15:40:45;3.63;;;1.52;;
41661;SDS011;27351;45.992;12.666;2022-12-01T15:43:19;1.88;;;0.90;;
41661;SDS011;27351;45.992;12.666;2022-12-01T15:46:27;2.60;;;1.10;;
41661;SDS011;27351;45.992;12.666;2022-12-01T15:48:34;3.63;;;1.20;;
41661;SDS011;27351;45.992;12.666;2022-12-01T15:51:02;1.65;;;0.90;;
41661;SDS011;27351;45.992;12.666;2022-12-01T15:53:29;1.92;;;1.20;;
41661;SDS011;27351;45.992;12.666;2022-12-01T15:55:59;1.73;;;1.00;;
41661;SDS011;27351;45.992;12.666;2022-12-01T15:58:27;3.70;;;1.03;;
41661;SDS011;27351;45.992;12.666;2022-12-01T16:03:26;2.42;;;1.10;;
41661;SDS011;27351;45.992;12.666;2022-12-01T16:05:52;1.83;;;1.17;;
41661;SDS011;27351;45.992;12.666;2022-12-01T16:08:27;1.70;;;1.00;;
41661;SDS011;27351;45.992;12.666;2022-12-01T16:14:02;2.42;;;1.08;;
41661;SDS011;27351;45.992;12.666;2022-12-01T16:19:02;3.22;;;1.20;;
41661;SDS011;27351;45.992;12.666;2022-12-01T16:21:32;3.20;;;1.48;;
41661;SDS011;27351;45.992;12.666;2022-12-01T16:24:05;2.38;;;1.33;;
41661;SDS011;27351;45.992;12.666;2022-12-01T16:26:31;4.43;;;1.38;;
41661;SDS011;27351;45.992;12.666;2022-12-01T16:28:57;1.77;;;1.17;;
41661;SDS011;27351;45.992;12.666;2022-12-01T16:31:24;2.22;;;1.25;;
41661;SDS011;27351;45.992;12.666;2022-12-01T16:33:58;3.22;;;1.15;;
41661;SDS011;27351;45.992;12.666;2022-12-01T16:36:24;2.03;;;1.15;;
41661;SDS011;27351;45.992;12.666;2022-12-01T16:38:49;1.73;;;1.00;;
41661;SDS011;27351;45.992;12.666;2022-12-01T16:41:16;2.25;;;1.27;;
41661;SDS011;27351;45.992;12.666;2022-12-01T16:43:42;3.35;;;1.38;;
41661;SDS011;27351;45.992;12.666;2022-12-01T16:46:09;2.95;;;1.40;;
41661;SDS011;27351;45.992;12.666;2022-12-01T16:48:36;3.53;;;1.60;;
41661;SDS011;27351;45.992;12.666;2022-12-01T16:51:03;2.38;;;1.38;;
41661;SDS011;27351;45.992;12.666;2022-12-01T16:53:29;5.15;;;2.13;;
41661;SDS011;27351;45.992;12.666;2022-12-01T16:55:56;5.00;;;2.63;;
41661;SDS011;27351;45.992;12.666;2022-12-01T16:58:22;5.10;;;1.77;;
41661;SDS011;27351;45.992;12.666;2022-12-01T17:00:48;3.27;;;1.40;;
41661;SDS011;27351;45.992;12.666;2022-12-01T17:03:17;5.35;;;1.52;;
41661;SDS011;27351;45.992;12.666;2022-12-01T17:05:45;2.65;;;1.35;;
41661;SDS011;27351;45.992;12.666;2022-12-01T17:08:11;2.75;;;1.42;;
41661;SDS011;27351;45.992;12.666;2022-12-01T17:10:39;3.50;;;1.63;;
41661;SDS011;27351;45.992;12.666;2022-12-01T17:13:05;3.40;;;1.55;;
41661;SDS011;27351;45.992;12.666;2022-12-01T17:15:31;4.25;;;1.98;;
41661;SDS011;27351;45.992;12.666;2022-12-01T17:17:56;3.77;;;2.13;;
41661;SDS011;27351;45.992;12.666;2022-12-01T17:20:22;4.40;;;2.20;;
41661;SDS011;27351;45.992;12.666;2022-12-01T17:22:48;3.95;;;1.73;;
41661;SDS011;27351;45.992;12.666;2022-12-01T17:25:13;4.57;;;2.25;;
41661;SDS011;27351;45.992;12.666;2022-12-01T17:27:40;6.00;;;2.45;;
41661;SDS011;27351;45.992;12.666;2022-12-01T17:30:08;5.72;;;3.08;;
41661;SDS011;27351;45.992;12.666;2022-12-01T17:32:34;8.40;;;3.10;;
41661;SDS011;27351;45.992;12.666;2022-12-01T17:34:59;5.95;;;2.97;;
41661;SDS011;27351;45.992;12.666;2022-12-01T17:37:25;6.30;;;3.40;;
41661;SDS011;27351;45.992;12.666;2022-12-01T17:39:52;8.60;;;3.45;;
41661;SDS011;27351;45.992;12.666;2022-12-01T17:42:18;10.18;;;5.18;;
41661;SDS011;27351;45.992;12.666;2022-12-01T17:44:43;11.25;;;5.90;;
41661;SDS011;27351;45.992;12.666;2022-12-01T17:47:09;11.20;;;5.93;;
41661;SDS011;27351;45.992;12.666;2022-12-01T17:49:35;8.93;;;5.00;;
41661;SDS011;27351;45.992;12.666;2022-12-01T17:52:02;10.80;;;5.60;;
41661;SDS011;27351;45.992;12.666;2022-12-01T17:54:27;12.57;;;6.13;;
41661;SDS011;27351;45.992;12.666;2022-12-01T17:56:53;9.60;;;5.88;;
41661;SDS011;27351;45.992;12.666;2022-12-01T17:59:19;9.80;;;6.28;;
41661;SDS011;27351;45.992;12.666;2022-12-01T18:01:44;9.13;;;5.00;;
41661;SDS011;27351;45.992;12.666;2022-12-01T18:04:11;8.10;;;4.82;;
41661;SDS011;27351;45.992;12.666;2022-12-01T18:06:36;6.80;;;3.90;;
41661;SDS011;27351;45.992;12.666;2022-12-01T18:09:02;6.77;;;3.90;;
41661;SDS011;27351;45.992;12.666;2022-12-01T18:11:27;6.83;;;2.77;;
41661;SDS011;27351;45.992;12.666;2022-12-01T18:13:53;3.30;;;1.80;;
41661;SDS011;27351;45.992;12.666;2022-12-01T18:16:20;3.20;;;1.50;;
41661;SDS011;27351;45.992;12.666;2022-12-01T18:18:46;4.13;;;1.35;;
41661;SDS011;27351;45.992;12.666;2022-12-01T18:21:12;2.60;;;1.38;;
41661;SDS011;27351;45.992;12.666;2022-12-01T18:23:38;2.60;;;1.40;;
41661;SDS011;27351;45.992;12.666;2022-12-01T18:26:05;3.28;;;1.60;;
41661;SDS011;27351;45.992;12.666;2022-12-01T18:28:31;3.65;;;1.63;;
41661;SDS011;27351;45.992;12.666;2022-12-01T18:31:03;3.75;;;1.98;;
41661;SDS011;27351;45.992;12.666;2022-12-01T18:33:30;4.60;;;2.25;;
41661;SDS011;27351;45.992;12.666;2022-12-01T18:35:55;5.97;;;2.60;;
41661;SDS011;27351;45.992;12.666;2022-12-01T18:38:21;6.13;;;2.93;;
41661;SDS011;27351;45.992;12.666;2022-12-01T18:40:49;4.60;;;2.47;;
41661;SDS011;27351;45.992;12.666;2022-12-01T18:43:14;4.33;;;2.23;;
41661;SDS011;27351;45.992;12.666;2022-12-01T18:45:40;4.77;;;2.30;;
41661;SDS011;27351;45.992;12.666;2022-12-01T18:48:06;4.10;;;2.00;;
41661;SDS011;27351;45.992;12.666;2022-12-01T18:50:32;4.57;;;2.00;;